sensor_id;sensor_type;location;lat;lon;timestamp;temperature;humidity
21355;DHT22;10835;50.148;19.760;2023-05-10T00:00:42;25.50;32.20
21355;DHT22;10835;50.148;19.760;2023-05-10T00:03:10;25.40;32.60
21355;DHT22;10835;50.148;19.760;2023-05-10T00:05:39;25.40;32.40
21355;DHT22;10835;50.148;19.760;2023-05-10T00:08:07;25.40;32.10
21355;DHT22;10835;50.148;19.760;2023-05-10T00:10:37;25.40;32.20
21355;DHT22;10835;50.148;19.760;2023-05-10T00:13:05;25.50;32.50
21355;DHT22;10835;50.148;19.760;2023-05-10T00:15:33;25.40;32.70
21355;DHT22;10835;50.148;19.760;2023-05-10T00:18:05;25.50;32.90
21355;DHT22;10835;50.148;19.760;2023-05-10T00:20:33;25.30;33.00
21355;DHT22;10835;50.148;19.760;2023-05-10T00:23:01;25.30;32.50
21355;DHT22;10835;50.148;19.760;2023-05-10T00:25:29;25.30;32.60
21355;DHT22;10835;50.148;19.760;2023-05-10T00:27:59;25.20;32.50
21355;DHT22;10835;50.148;19.760;2023-05-10T00:30:28;25.20;33.00
21355;DHT22;10835;50.148;19.760;2023-05-10T00:32:57;25.20;34.30
21355;DHT22;10835;50.148;19.760;2023-05-10T00:35:25;25.10;33.30
21355;DHT22;10835;50.148;19.760;2023-05-10T00:37:54;25.10;33.50
21355;DHT22;10835;50.148;19.760;2023-05-10T00:40:22;24.50;33.80
21355;DHT22;10835;50.148;19.760;2023-05-10T00:42:55;24.50;34.70
21355;DHT22;10835;50.148;19.760;2023-05-10T00:45:24;24.50;34.40
21355;DHT22;10835;50.148;19.760;2023-05-10T00:47:53;24.40;34.60
21355;DHT22;10835;50.148;19.760;2023-05-10T00:50:23;24.50;34.70
21355;DHT22;10835;50.148;19.760;2023-05-10T00:52:52;24.50;34.30
21355;DHT22;10835;50.148;19.760;2023-05-10T00:55:20;24.20;34.40
21355;DHT22;10835;50.148;19.760;2023-05-10T00:57:48;24.40;34.90
21355;DHT22;10835;50.148;19.760;2023-05-10T01:00:17;24.00;35.00
21355;DHT22;10835;50.148;19.760;2023-05-10T01:02:47;23.70;35.60
21355;DHT22;10835;50.148;19.760;2023-05-10T01:05:16;23.60;35.60
21355;DHT22;10835;50.148;19.760;2023-05-10T01:07:45;23.40;35.70
21355;DHT22;10835;50.148;19.760;2023-05-10T01:10:13;23.10;36.30
21355;DHT22;10835;50.148;19.760;2023-05-10T01:12:43;23.50;36.30
21355;DHT22;10835;50.148;19.760;2023-05-10T01:15:15;23.00;36.40
21355;DHT22;10835;50.148;19.760;2023-05-10T01:17:47;23.20;37.00
21355;DHT22;10835;50.148;19.760;2023-05-10T01:20:16;22.90;37.00
21355;DHT22;10835;50.148;19.760;2023-05-10T01:23:09;23.00;37.10
21355;DHT22;10835;50.148;19.760;2023-05-10T01:28:58;22.40;37.90
21355;DHT22;10835;50.148;19.760;2023-05-10T01:31:59;22.40;37.70
21355;DHT22;10835;50.148;19.760;2023-05-10T01:34:35;22.50;38.60
21355;DHT22;10835;50.148;19.760;2023-05-10T01:37:09;22.50;37.80
21355;DHT22;10835;50.148;19.760;2023-05-10T01:39:44;22.40;38.60
21355;DHT22;10835;50.148;19.760;2023-05-10T01:42:17;22.50;38.10
21355;DHT22;10835;50.148;19.760;2023-05-10T01:44:51;22.30;38.70
21355;DHT22;10835;50.148;19.760;2023-05-10T01:47:28;22.30;38.30
21355;DHT22;10835;50.148;19.760;2023-05-10T01:50:02;21.90;38.80
21355;DHT22;10835;50.148;19.760;2023-05-10T01:52:33;21.70;39.10
21355;DHT22;10835;50.148;19.760;2023-05-10T01:55:08;21.90;39.40
21355;DHT22;10835;50.148;19.760;2023-05-10T01:57:39;21.70;39.40
21355;DHT22;10835;50.148;19.760;2023-05-10T02:00:10;21.60;39.80
21355;DHT22;10835;50.148;19.760;2023-05-10T02:02:45;21.60;39.20
21355;DHT22;10835;50.148;19.760;2023-05-10T02:05:15;21.50;39.50
21355;DHT22;10835;50.148;19.760;2023-05-10T02:07:44;21.60;39.80
21355;DHT22;10835;50.148;19.760;2023-05-10T02:10:13;21.40;39.50
21355;DHT22;10835;50.148;19.760;2023-05-10T02:12:44;21.40;39.70
21355;DHT22;10835;50.148;19.760;2023-05-10T02:15:18;21.70;39.80
21355;DHT22;10835;50.148;19.760;2023-05-10T02:17:49;21.80;39.20
21355;DHT22;10835;50.148;19.760;2023-05-10T02:20:19;21.70;39.30
21355;DHT22;10835;50.148;19.760;2023-05-10T02:22:49;21.60;39.10
21355;DHT22;10835;50.148;19.760;2023-05-10T02:25:21;21.80;39.00
21355;DHT22;10835;50.148;19.760;2023-05-10T02:27:50;21.60;39.40
21355;DHT22;10835;50.148;19.760;2023-05-10T02:30:19;21.90;40.40
21355;DHT22;10835;50.148;19.760;2023-05-10T02:32:51;22.00;39.40
21355;DHT22;10835;50.148;19.760;2023-05-10T02:35:20;22.20;38.90
21355;DHT22;10835;50.148;19.760;2023-05-10T02:37:48;21.60;38.70
21355;DHT22;10835;50.148;19.760;2023-05-10T02:40:19;21.80;39.20
21355;DHT22;10835;50.148;19.760;2023-05-10T02:42:50;21.60;39.10
21355;DHT22;10835;50.148;19.760;2023-05-10T02:45:23;21.20;39.30
21355;DHT22;10835;50.148;19.760;2023-05-10T02:47:54;21.30;39.50
21355;DHT22;10835;50.148;19.760;2023-05-10T02:50:25;21.60;39.50
21355;DHT22;10835;50.148;19.760;2023-05-10T02:52:59;21.60;39.40
21355;DHT22;10835;50.148;19.760;2023-05-10T02:55:33;21.20;39.40
21355;DHT22;10835;50.148;19.760;2023-05-10T02:58:03;21.30;39.80
21355;DHT22;10835;50.148;19.760;2023-05-10T03:00:31;21.50;40.10
21355;DHT22;10835;50.148;19.760;2023-05-10T03:03:01;21.10;39.70
21355;DHT22;10835;50.148;19.760;2023-05-10T03:05:29;21.40;40.20
21355;DHT22;10835;50.148;19.760;2023-05-10T03:08:03;21.80;39.90
21355;DHT22;10835;50.148;19.760;2023-05-10T03:10:41;21.70;39.00
21355;DHT22;10835;50.148;19.760;2023-05-10T03:13:21;21.70;39.80
21355;DHT22;10835;50.148;19.760;2023-05-10T03:16:01;21.70;39.50
21355;DHT22;10835;50.148;19.760;2023-05-10T03:18:41;21.80;40.00
21355;DHT22;10835;50.148;19.760;2023-05-10T03:21:11;21.80;39.40
21355;DHT22;10835;50.148;19.760;2023-05-10T03:23:45;21.80;39.10
21355;DHT22;10835;50.148;19.760;2023-05-10T03:26:19;21.70;39.80
21355;DHT22;10835;50.148;19.760;2023-05-10T03:28:50;21.60;40.10
21355;DHT22;10835;50.148;19.760;2023-05-10T03:31:18;21.60;39.90
21355;DHT22;10835;50.148;19.760;2023-05-10T03:33:49;21.50;40.40
21355;DHT22;10835;50.148;19.760;2023-05-10T03:36:22;21.50;40.20
21355;DHT22;10835;50.148;19.760;2023-05-10T03:38:51;21.80;40.70
21355;DHT22;10835;50.148;19.760;2023-05-10T03:41:19;22.00;39.80
21355;DHT22;10835;50.148;19.760;2023-05-10T03:43:48;21.70;40.40
21355;DHT22;10835;50.148;19.760;2023-05-10T03:46:17;21.70;40.40
21355;DHT22;10835;50.148;19.760;2023-05-10T03:48:45;21.50;40.60
21355;DHT22;10835;50.148;19.760;2023-05-10T03:51:15;21.60;40.50
21355;DHT22;10835;50.148;19.760;2023-05-10T03:53:43;21.70;40.00
21355;DHT22;10835;50.148;19.760;2023-05-10T03:56:11;21.70;40.00
21355;DHT22;10835;50.148;19.760;2023-05-10T03:58:39;22.00;40.60
21355;DHT22;10835;50.148;19.760;2023-05-10T04:01:08;22.40;40.90
21355;DHT22;10835;50.148;19.760;2023-05-10T04:03:36;22.60;39.80
21355;DHT22;10835;50.148;19.760;2023-05-10T04:06:05;22.90;39.30
21355;DHT22;10835;50.148;19.760;2023-05-10T04:08:37;23.20;39.00
21355;DHT22;10835;50.148;19.760;2023-05-10T04:11:05;23.40;37.80
21355;DHT22;10835;50.148;19.760;2023-05-10T04:13:34;23.50;37.70
21355;DHT22;10835;50.148;19.760;2023-05-10T04:16:03;23.00;38.20
21355;DHT22;10835;50.148;19.760;2023-05-10T04:18:31;22.70;39.70
21355;DHT22;10835;50.148;19.760;2023-05-10T04:20:59;22.50;39.40
21355;DHT22;10835;50.148;19.760;2023-05-10T04:23:28;23.20;38.80
21355;DHT22;10835;50.148;19.760;2023-05-10T04:26:01;23.70;37.80
21355;DHT22;10835;50.148;19.760;2023-05-10T04:28:29;24.00;36.40
21355;DHT22;10835;50.148;19.760;2023-05-10T04:31:02;24.30;36.60
21355;DHT22;10835;50.148;19.760;2023-05-10T04:33:31;24.60;35.60
21355;DHT22;10835;50.148;19.760;2023-05-10T04:36:00;24.90;35.90
21355;DHT22;10835;50.148;19.760;2023-05-10T04:38:28;25.10;35.50
21355;DHT22;10835;50.148;19.760;2023-05-10T04:41:05;25.10;36.20
21355;DHT22;10835;50.148;19.760;2023-05-10T04:43:34;25.30;35.00
21355;DHT22;10835;50.148;19.760;2023-05-10T04:46:02;25.50;35.00
21355;DHT22;10835;50.148;19.760;2023-05-10T04:48:31;25.50;34.50
21355;DHT22;10835;50.148;19.760;2023-05-10T04:51:04;25.80;34.00
21355;DHT22;10835;50.148;19.760;2023-05-10T04:53:33;26.10;33.90
21355;DHT22;10835;50.148;19.760;2023-05-10T04:56:01;26.30;35.10
21355;DHT22;10835;50.148;19.760;2023-05-10T04:58:31;26.40;34.20
21355;DHT22;10835;50.148;19.760;2023-05-10T05:01:05;26.60;33.40
21355;DHT22;10835;50.148;19.760;2023-05-10T05:03:33;26.80;32.60
21355;DHT22;10835;50.148;19.760;2023-05-10T05:06:02;26.90;32.40
21355;DHT22;10835;50.148;19.760;2023-05-10T05:08:30;27.10;32.80
21355;DHT22;10835;50.148;19.760;2023-05-10T05:10:58;27.00;33.40
21355;DHT22;10835;50.148;19.760;2023-05-10T05:13:27;27.10;31.90
21355;DHT22;10835;50.148;19.760;2023-05-10T05:15:56;27.30;32.50
21355;DHT22;10835;50.148;19.760;2023-05-10T05:18:25;27.50;32.40
21355;DHT22;10835;50.148;19.760;2023-05-10T05:20:53;27.60;31.70
21355;DHT22;10835;50.148;19.760;2023-05-10T05:23:24;27.60;32.30
21355;DHT22;10835;50.148;19.760;2023-05-10T05:25:52;27.60;32.30
21355;DHT22;10835;50.148;19.760;2023-05-10T05:28:21;27.70;31.90
21355;DHT22;10835;50.148;19.760;2023-05-10T05:30:49;27.80;31.80
21355;DHT22;10835;50.148;19.760;2023-05-10T05:33:18;27.80;32.10
21355;DHT22;10835;50.148;19.760;2023-05-10T05:35:48;27.70;32.50
21355;DHT22;10835;50.148;19.760;2023-05-10T05:38:23;27.90;32.10
21355;DHT22;10835;50.148;19.760;2023-05-10T05:40:51;27.60;32.00
21355;DHT22;10835;50.148;19.760;2023-05-10T05:43:19;27.00;32.20
21355;DHT22;10835;50.148;19.760;2023-05-10T05:45:47;27.30;32.60
21355;DHT22;10835;50.148;19.760;2023-05-10T05:48:17;27.60;32.90
21355;DHT22;10835;50.148;19.760;2023-05-10T05:50:45;27.80;32.10
21355;DHT22;10835;50.148;19.760;2023-05-10T05:53:14;27.80;32.60
21355;DHT22;10835;50.148;19.760;2023-05-10T05:55:51;27.90;32.80
21355;DHT22;10835;50.148;19.760;2023-05-10T05:58:19;27.90;32.40
21355;DHT22;10835;50.148;19.760;2023-05-10T06:00:51;27.90;32.20
21355;DHT22;10835;50.148;19.760;2023-05-10T06:03:24;28.00;32.80
21355;DHT22;10835;50.148;19.760;2023-05-10T06:05:53;28.00;32.20
21355;DHT22;10835;50.148;19.760;2023-05-10T06:08:21;27.90;32.20
21355;DHT22;10835;50.148;19.760;2023-05-10T06:10:52;28.00;32.20
21355;DHT22;10835;50.148;19.760;2023-05-10T06:13:20;27.80;33.00
21355;DHT22;10835;50.148;19.760;2023-05-10T06:15:49;28.10;33.50
21355;DHT22;10835;50.148;19.760;2023-05-10T06:18:18;28.10;33.10
21355;DHT22;10835;50.148;19.760;2023-05-10T06:20:47;27.80;32.60
21355;DHT22;10835;50.148;19.760;2023-05-10T06:23:17;28.10;33.50
21355;DHT22;10835;50.148;19.760;2023-05-10T06:25:45;28.20;32.90
21355;DHT22;10835;50.148;19.760;2023-05-10T06:28:13;28.20;33.10
21355;DHT22;10835;50.148;19.760;2023-05-10T06:30:42;28.40;33.10
21355;DHT22;10835;50.148;19.760;2023-05-10T06:33:10;28.10;32.80
21355;DHT22;10835;50.148;19.760;2023-05-10T06:35:38;28.30;32.40
21355;DHT22;10835;50.148;19.760;2023-05-10T06:38:08;28.00;32.50
21355;DHT22;10835;50.148;19.760;2023-05-10T06:40:36;28.10;32.30
21355;DHT22;10835;50.148;19.760;2023-05-10T06:43:04;28.10;32.70
21355;DHT22;10835;50.148;19.760;2023-05-10T06:45:32;28.20;32.00
21355;DHT22;10835;50.148;19.760;2023-05-10T06:48:01;28.40;32.90
21355;DHT22;10835;50.148;19.760;2023-05-10T06:50:29;28.00;33.10
21355;DHT22;10835;50.148;19.760;2023-05-10T06:52:57;28.20;33.50
21355;DHT22;10835;50.148;19.760;2023-05-10T06:55:27;28.10;33.30
21355;DHT22;10835;50.148;19.760;2023-05-10T06:57:56;28.20;32.40
21355;DHT22;10835;50.148;19.760;2023-05-10T07:00:24;27.60;32.70
21355;DHT22;10835;50.148;19.760;2023-05-10T07:02:52;28.10;34.20
21355;DHT22;10835;50.148;19.760;2023-05-10T07:05:24;28.40;32.40
21355;DHT22;10835;50.148;19.760;2023-05-10T07:07:54;28.50;32.40
21355;DHT22;10835;50.148;19.760;2023-05-10T07:10:23;28.50;32.30
21355;DHT22;10835;50.148;19.760;2023-05-10T07:12:52;28.80;34.00
21355;DHT22;10835;50.148;19.760;2023-05-10T07:15:21;28.70;32.20
21355;DHT22;10835;50.148;19.760;2023-05-10T07:17:49;28.70;33.30
21355;DHT22;10835;50.148;19.760;2023-05-10T07:20:19;28.90;32.80
21355;DHT22;10835;50.148;19.760;2023-05-10T07:22:47;29.10;33.00
21355;DHT22;10835;50.148;19.760;2023-05-10T07:25:15;29.10;32.40
21355;DHT22;10835;50.148;19.760;2023-05-10T07:27:44;29.00;32.50
21355;DHT22;10835;50.148;19.760;2023-05-10T07:30:14;28.90;33.00
21355;DHT22;10835;50.148;19.760;2023-05-10T07:32:43;28.90;33.40
21355;DHT22;10835;50.148;19.760;2023-05-10T07:35:11;29.10;34.10
21355;DHT22;10835;50.148;19.760;2023-05-10T07:37:39;29.10;33.00
21355;DHT22;10835;50.148;19.760;2023-05-10T07:40:10;29.10;32.70
21355;DHT22;10835;50.148;19.760;2023-05-10T07:42:39;29.50;32.50
21355;DHT22;10835;50.148;19.760;2023-05-10T07:45:08;29.40;32.30
21355;DHT22;10835;50.148;19.760;2023-05-10T07:47:37;29.40;31.20
21355;DHT22;10835;50.148;19.760;2023-05-10T07:50:07;29.10;32.00
21355;DHT22;10835;50.148;19.760;2023-05-10T07:52:35;29.30;33.10
21355;DHT22;10835;50.148;19.760;2023-05-10T07:55:04;29.20;32.10
21355;DHT22;10835;50.148;19.760;2023-05-10T07:57:34;29.60;32.30
21355;DHT22;10835;50.148;19.760;2023-05-10T08:00:02;29.60;31.90
21355;DHT22;10835;50.148;19.760;2023-05-10T08:02:40;29.60;31.50
21355;DHT22;10835;50.148;19.760;2023-05-10T08:05:09;29.30;32.00
21355;DHT22;10835;50.148;19.760;2023-05-10T08:07:37;29.60;32.50
21355;DHT22;10835;50.148;19.760;2023-05-10T08:10:07;29.70;32.40
21355;DHT22;10835;50.148;19.760;2023-05-10T08:12:35;29.70;32.50
21355;DHT22;10835;50.148;19.760;2023-05-10T08:15:04;29.60;33.40
21355;DHT22;10835;50.148;19.760;2023-05-10T08:17:33;29.80;32.60
21355;DHT22;10835;50.148;19.760;2023-05-10T08:20:03;29.60;31.70
21355;DHT22;10835;50.148;19.760;2023-05-10T08:22:32;29.80;33.20
21355;DHT22;10835;50.148;19.760;2023-05-10T08:25:00;29.80;32.10
21355;DHT22;10835;50.148;19.760;2023-05-10T08:27:28;29.90;33.10
21355;DHT22;10835;50.148;19.760;2023-05-10T08:29:56;30.10;31.30
21355;DHT22;10835;50.148;19.760;2023-05-10T08:32:24;30.00;31.40
21355;DHT22;10835;50.148;19.760;2023-05-10T08:34:53;30.20;31.60
21355;DHT22;10835;50.148;19.760;2023-05-10T08:37:23;30.30;31.50
21355;DHT22;10835;50.148;19.760;2023-05-10T08:39:51;30.10;31.40
21355;DHT22;10835;50.148;19.760;2023-05-10T08:42:22;30.20;32.00
21355;DHT22;10835;50.148;19.760;2023-05-10T08:44:54;30.20;30.20
21355;DHT22;10835;50.148;19.760;2023-05-10T08:47:23;30.30;30.70
21355;DHT22;10835;50.148;19.760;2023-05-10T08:49:51;30.10;30.70
21355;DHT22;10835;50.148;19.760;2023-05-10T08:52:22;30.20;31.30
21355;DHT22;10835;50.148;19.760;2023-05-10T08:54:53;30.00;30.70
21355;DHT22;10835;50.148;19.760;2023-05-10T08:57:25;30.00;31.00
21355;DHT22;10835;50.148;19.760;2023-05-10T08:59:53;30.40;30.60
21355;DHT22;10835;50.148;19.760;2023-05-10T09:02:23;30.30;29.90
21355;DHT22;10835;50.148;19.760;2023-05-10T09:04:51;30.60;30.00
21355;DHT22;10835;50.148;19.760;2023-05-10T09:07:20;30.40;30.90
21355;DHT22;10835;50.148;19.760;2023-05-10T09:09:55;30.30;29.30
21355;DHT22;10835;50.148;19.760;2023-05-10T09:12:25;29.90;29.40
21355;DHT22;10835;50.148;19.760;2023-05-10T09:14:54;30.20;30.50
21355;DHT22;10835;50.148;19.760;2023-05-10T09:17:23;30.40;29.90
21355;DHT22;10835;50.148;19.760;2023-05-10T09:19:57;30.60;30.00
21355;DHT22;10835;50.148;19.760;2023-05-10T09:22:26;30.90;30.30
21355;DHT22;10835;50.148;19.760;2023-05-10T09:25:06;30.70;29.80
21355;DHT22;10835;50.148;19.760;2023-05-10T09:27:35;30.70;29.70
21355;DHT22;10835;50.148;19.760;2023-05-10T09:30:04;30.70;28.90
21355;DHT22;10835;50.148;19.760;2023-05-10T09:32:36;30.90;29.70
21355;DHT22;10835;50.148;19.760;2023-05-10T09:35:09;31.00;29.20
21355;DHT22;10835;50.148;19.760;2023-05-10T09:37:39;30.80;28.60
21355;DHT22;10835;50.148;19.760;2023-05-10T09:40:16;31.10;28.90
21355;DHT22;10835;50.148;19.760;2023-05-10T09:42:52;30.70;28.80
21355;DHT22;10835;50.148;19.760;2023-05-10T09:45:21;30.60;29.10
21355;DHT22;10835;50.148;19.760;2023-05-10T09:47:52;30.80;29.60
21355;DHT22;10835;50.148;19.760;2023-05-10T09:50:22;30.80;28.80
21355;DHT22;10835;50.148;19.760;2023-05-10T09:52:51;30.80;29.40
21355;DHT22;10835;50.148;19.760;2023-05-10T09:55:22;30.70;29.30
21355;DHT22;10835;50.148;19.760;2023-05-10T09:57:59;30.60;29.30
21355;DHT22;10835;50.148;19.760;2023-05-10T10:00:28;30.70;29.90
21355;DHT22;10835;50.148;19.760;2023-05-10T10:02:57;30.90;28.40
21355;DHT22;10835;50.148;19.760;2023-05-10T10:05:29;30.80;28.10
21355;DHT22;10835;50.148;19.760;2023-05-10T10:07:58;31.00;28.40
21355;DHT22;10835;50.148;19.760;2023-05-10T10:10:28;30.70;28.40
21355;DHT22;10835;50.148;19.760;2023-05-10T10:12:57;30.70;27.80
21355;DHT22;10835;50.148;19.760;2023-05-10T10:15:25;30.70;28.30
21355;DHT22;10835;50.148;19.760;2023-05-10T10:17:54;30.80;28.80
21355;DHT22;10835;50.148;19.760;2023-05-10T10:20:22;30.50;28.50
21355;DHT22;10835;50.148;19.760;2023-05-10T10:22:52;30.60;28.90
21355;DHT22;10835;50.148;19.760;2023-05-10T10:25:21;30.50;28.30
21355;DHT22;10835;50.148;19.760;2023-05-10T10:28:11;30.60;28.10
21355;DHT22;10835;50.148;19.760;2023-05-10T10:30:46;30.60;28.60
21355;DHT22;10835;50.148;19.760;2023-05-10T10:33:39;30.40;28.50
21355;DHT22;10835;50.148;19.760;2023-05-10T10:36:08;30.60;29.30
21355;DHT22;10835;50.148;19.760;2023-05-10T10:38:37;30.90;27.70
21355;DHT22;10835;50.148;19.760;2023-05-10T10:41:10;30.90;28.50
21355;DHT22;10835;50.148;19.760;2023-05-10T10:44:30;31.10;28.90
21355;DHT22;10835;50.148;19.760;2023-05-10T10:47:03;31.10;27.80
21355;DHT22;10835;50.148;19.760;2023-05-10T10:49:43;31.10;27.90
21355;DHT22;10835;50.148;19.760;2023-05-10T10:52:22;31.10;28.50
21355;DHT22;10835;50.148;19.760;2023-05-10T10:54:58;30.90;27.80
21355;DHT22;10835;50.148;19.760;2023-05-10T10:57:27;31.00;28.20
21355;DHT22;10835;50.148;19.760;2023-05-10T11:00:21;31.20;27.70
21355;DHT22;10835;50.148;19.760;2023-05-10T11:02:50;31.20;27.30
21355;DHT22;10835;50.148;19.760;2023-05-10T11:08:13;31.10;27.60
21355;DHT22;10835;50.148;19.760;2023-05-10T11:11:05;31.30;27.50
21355;DHT22;10835;50.148;19.760;2023-05-10T11:13:41;31.10;27.60
21355;DHT22;10835;50.148;19.760;2023-05-10T11:16:17;31.10;27.70
21355;DHT22;10835;50.148;19.760;2023-05-10T11:18:53;30.90;26.30
21355;DHT22;10835;50.148;19.760;2023-05-10T11:21:24;31.20;26.70
21355;DHT22;10835;50.148;19.760;2023-05-10T11:23:54;31.30;26.60
21355;DHT22;10835;50.148;19.760;2023-05-10T11:26:25;31.30;27.10
21355;DHT22;10835;50.148;19.760;2023-05-10T11:28:54;31.60;27.20
21355;DHT22;10835;50.148;19.760;2023-05-10T11:31:24;31.20;27.00
21355;DHT22;10835;50.148;19.760;2023-05-10T11:33:55;31.30;27.10
21355;DHT22;10835;50.148;19.760;2023-05-10T11:36:25;31.30;27.80
21355;DHT22;10835;50.148;19.760;2023-05-10T11:38:54;31.40;27.80
21355;DHT22;10835;50.148;19.760;2023-05-10T11:41:23;31.50;27.10
21355;DHT22;10835;50.148;19.760;2023-05-10T11:43:53;31.70;25.90
21355;DHT22;10835;50.148;19.760;2023-05-10T11:46:24;31.80;25.90
21355;DHT22;10835;50.148;19.760;2023-05-10T11:48:55;31.40;26.10
21355;DHT22;10835;50.148;19.760;2023-05-10T11:51:24;31.60;26.50
21355;DHT22;10835;50.148;19.760;2023-05-10T11:53:56;31.50;27.10
21355;DHT22;10835;50.148;19.760;2023-05-10T11:56:24;31.50;26.80
21355;DHT22;10835;50.148;19.760;2023-05-10T11:58:54;31.70;27.20
21355;DHT22;10835;50.148;19.760;2023-05-10T12:01:24;31.60;26.40
21355;DHT22;10835;50.148;19.760;2023-05-10T12:03:57;31.80;26.80
21355;DHT22;10835;50.148;19.760;2023-05-10T12:06:28;31.90;26.10
21355;DHT22;10835;50.148;19.760;2023-05-10T12:08:58;31.70;26.30
21355;DHT22;10835;50.148;19.760;2023-05-10T12:11:28;31.90;26.40
21355;DHT22;10835;50.148;19.760;2023-05-10T12:13:56;32.00;26.70
21355;DHT22;10835;50.148;19.760;2023-05-10T12:16:28;32.00;27.40
21355;DHT22;10835;50.148;19.760;2023-05-10T12:18:58;31.90;26.90
21355;DHT22;10835;50.148;19.760;2023-05-10T12:21:28;31.80;27.10
21355;DHT22;10835;50.148;19.760;2023-05-10T12:24:00;31.40;26.60
21355;DHT22;10835;50.148;19.760;2023-05-10T12:26:29;31.50;26.10
21355;DHT22;10835;50.148;19.760;2023-05-10T12:29:12;31.80;26.80
21355;DHT22;10835;50.148;19.760;2023-05-10T12:31:58;31.90;26.30
21355;DHT22;10835;50.148;19.760;2023-05-10T12:34:29;31.50;26.40
21355;DHT22;10835;50.148;19.760;2023-05-10T12:36:58;31.50;26.90
21355;DHT22;10835;50.148;19.760;2023-05-10T12:39:26;31.10;26.60
21355;DHT22;10835;50.148;19.760;2023-05-10T12:42:05;31.00;26.90
21355;DHT22;10835;50.148;19.760;2023-05-10T12:44:33;31.00;27.00
21355;DHT22;10835;50.148;19.760;2023-05-10T12:47:03;31.10;27.10
21355;DHT22;10835;50.148;19.760;2023-05-10T12:49:31;31.00;27.10
21355;DHT22;10835;50.148;19.760;2023-05-10T12:51:59;31.00;27.60
21355;DHT22;10835;50.148;19.760;2023-05-10T12:54:28;31.10;27.20
21355;DHT22;10835;50.148;19.760;2023-05-10T12:56:56;31.10;27.00
21355;DHT22;10835;50.148;19.760;2023-05-10T12:59:24;31.20;26.90
21355;DHT22;10835;50.148;19.760;2023-05-10T13:01:53;31.20;27.10
21355;DHT22;10835;50.148;19.760;2023-05-10T13:04:22;31.50;27.50
21355;DHT22;10835;50.148;19.760;2023-05-10T13:06:50;31.40;27.50
21355;DHT22;10835;50.148;19.760;2023-05-10T13:09:19;31.20;27.20
21355;DHT22;10835;50.148;19.760;2023-05-10T13:11:48;31.10;26.70
21355;DHT22;10835;50.148;19.760;2023-05-10T13:14:17;31.20;27.70
21355;DHT22;10835;50.148;19.760;2023-05-10T13:16:47;31.30;27.00
21355;DHT22;10835;50.148;19.760;2023-05-10T13:19:16;31.10;27.30
21355;DHT22;10835;50.148;19.760;2023-05-10T13:21:46;30.90;27.30
21355;DHT22;10835;50.148;19.760;2023-05-10T13:24:14;30.80;27.50
21355;DHT22;10835;50.148;19.760;2023-05-10T13:26:42;31.00;26.80
21355;DHT22;10835;50.148;19.760;2023-05-10T13:29:11;31.10;27.90
21355;DHT22;10835;50.148;19.760;2023-05-10T13:31:39;31.00;27.00
21355;DHT22;10835;50.148;19.760;2023-05-10T13:34:08;31.40;27.60
21355;DHT22;10835;50.148;19.760;2023-05-10T13:36:36;31.60;27.50
21355;DHT22;10835;50.148;19.760;2023-05-10T13:39:06;31.70;26.80
21355;DHT22;10835;50.148;19.760;2023-05-10T13:41:35;31.90;27.10
21355;DHT22;10835;50.148;19.760;2023-05-10T13:44:03;32.10;27.40
21355;DHT22;10835;50.148;19.760;2023-05-10T13:46:31;32.10;26.90
21355;DHT22;10835;50.148;19.760;2023-05-10T13:49:00;31.80;26.60
21355;DHT22;10835;50.148;19.760;2023-05-10T13:51:29;31.90;26.50
21355;DHT22;10835;50.148;19.760;2023-05-10T13:53:58;31.90;26.50
21355;DHT22;10835;50.148;19.760;2023-05-10T13:56:28;32.10;26.40
21355;DHT22;10835;50.148;19.760;2023-05-10T13:58:56;32.10;26.70
21355;DHT22;10835;50.148;19.760;2023-05-10T14:01:25;32.10;26.30
21355;DHT22;10835;50.148;19.760;2023-05-10T14:03:53;32.10;26.50
21355;DHT22;10835;50.148;19.760;2023-05-10T14:06:22;32.40;26.10
21355;DHT22;10835;50.148;19.760;2023-05-10T14:08:50;32.00;26.40
21355;DHT22;10835;50.148;19.760;2023-05-10T14:11:19;31.50;26.40
21355;DHT22;10835;50.148;19.760;2023-05-10T14:13:51;31.90;26.80
21355;DHT22;10835;50.148;19.760;2023-05-10T14:16:20;31.90;26.60
21355;DHT22;10835;50.148;19.760;2023-05-10T14:18:49;32.10;26.60
21355;DHT22;10835;50.148;19.760;2023-05-10T14:21:18;32.10;27.00
21355;DHT22;10835;50.148;19.760;2023-05-10T14:23:46;32.00;26.80
21355;DHT22;10835;50.148;19.760;2023-05-10T14:26:14;31.80;26.70
21355;DHT22;10835;50.148;19.760;2023-05-10T14:28:42;31.90;26.80
21355;DHT22;10835;50.148;19.760;2023-05-10T14:31:15;32.00;27.50
21355;DHT22;10835;50.148;19.760;2023-05-10T14:33:43;31.90;26.90
21355;DHT22;10835;50.148;19.760;2023-05-10T14:36:12;31.80;26.70
21355;DHT22;10835;50.148;19.760;2023-05-10T14:38:40;31.90;26.50
21355;DHT22;10835;50.148;19.760;2023-05-10T14:41:09;32.10;26.90
21355;DHT22;10835;50.148;19.760;2023-05-10T14:43:41;31.80;26.30
21355;DHT22;10835;50.148;19.760;2023-05-10T14:46:09;31.40;26.50
21355;DHT22;10835;50.148;19.760;2023-05-10T14:48:39;31.30;26.80
21355;DHT22;10835;50.148;19.760;2023-05-10T14:51:07;31.10;26.60
21355;DHT22;10835;50.148;19.760;2023-05-10T14:53:35;31.10;27.00
21355;DHT22;10835;50.148;19.760;2023-05-10T14:56:03;31.10;27.20
21355;DHT22;10835;50.148;19.760;2023-05-10T14:58:32;31.10;27.30
21355;DHT22;10835;50.148;19.760;2023-05-10T15:01:00;31.30;27.30
21355;DHT22;10835;50.148;19.760;2023-05-10T15:03:29;31.20;27.00
21355;DHT22;10835;50.148;19.760;2023-05-10T15:06:00;31.10;27.20
21355;DHT22;10835;50.148;19.760;2023-05-10T15:08:29;31.00;27.10
21355;DHT22;10835;50.148;19.760;2023-05-10T15:10:57;31.10;27.30
21355;DHT22;10835;50.148;19.760;2023-05-10T15:13:27;31.00;26.80
21355;DHT22;10835;50.148;19.760;2023-05-10T15:15:55;31.10;27.30
21355;DHT22;10835;50.148;19.760;2023-05-10T15:18:23;31.00;27.00
21355;DHT22;10835;50.148;19.760;2023-05-10T15:20:52;31.40;27.30
21355;DHT22;10835;50.148;19.760;2023-05-10T15:23:26;31.50;27.20
21355;DHT22;10835;50.148;19.760;2023-05-10T15:25:55;31.40;26.50
21355;DHT22;10835;50.148;19.760;2023-05-10T15:28:23;31.40;26.80
21355;DHT22;10835;50.148;19.760;2023-05-10T15:30:52;31.70;27.20
21355;DHT22;10835;50.148;19.760;2023-05-10T15:33:20;31.60;27.20
21355;DHT22;10835;50.148;19.760;2023-05-10T15:35:48;31.60;26.70
21355;DHT22;10835;50.148;19.760;2023-05-10T15:38:16;31.60;27.40
21355;DHT22;10835;50.148;19.760;2023-05-10T15:40:46;31.50;27.10